createdAt,value
2022-08-04T00:00:46.675Z,0
2022-08-04T00:01:49.166Z,0
2022-08-04T00:02:52.805Z,0
2022-08-04T00:03:55.752Z,0
2022-08-04T00:04:58.087Z,0
2022-08-04T00:06:01.264Z,0
2022-08-04T00:07:04.252Z,0
2022-08-04T00:08:06.858Z,0
2022-08-04T00:09:10.030Z,0
2022-08-04T00:10:12.352Z,0
2022-08-04T00:11:15.668Z,0
2022-08-04T00:12:18.082Z,0
2022-08-04T00:13:21.258Z,0
2022-08-04T00:14:22.991Z,0
2022-08-04T00:15:25.274Z,0
2022-08-04T00:16:31.407Z,0
2022-08-04T00:17:41.801Z,0
2022-08-04T00:18:48.507Z,0
2022-08-04T00:19:51.634Z,0
2022-08-04T00:20:54.539Z,0
2022-08-04T00:21:57.176Z,0
2022-08-04T00:22:59.740Z,0
2022-08-04T00:24:11.199Z,0
2022-08-04T00:25:15.661Z,0
2022-08-04T00:26:19.539Z,0
2022-08-04T00:27:22.703Z,0
2022-08-04T00:28:25.832Z,0
2022-08-04T00:29:28.692Z,0
2022-08-04T00:30:31.262Z,0
2022-08-04T00:31:54.575Z,0
2022-08-04T00:33:00.700Z,0
2022-08-04T00:34:03.408Z,0
2022-08-04T00:35:06.060Z,0
2022-08-04T00:36:09.296Z,0
2022-08-04T00:37:12.295Z,0
2022-08-04T00:38:15.494Z,0
2022-08-04T00:39:19.618Z,0
2022-08-04T00:40:23.425Z,0
2022-08-04T00:41:26.001Z,0
2022-08-04T00:42:29.191Z,0
2022-08-04T00:43:32.105Z,0
2022-08-04T00:44:34.397Z,0
2022-08-04T00:46:10.761Z,0
2022-08-04T00:47:21.343Z,0
2022-08-04T00:48:25.855Z,0
2022-08-04T00:49:30.645Z,0
2022-08-04T00:50:33.831Z,0
2022-08-04T00:51:36.453Z,0
2022-08-04T00:52:38.519Z,0
2022-08-04T00:53:49.537Z,0
2022-08-04T00:54:52.921Z,0
2022-08-04T00:55:55.548Z,0
2022-08-04T00:56:58.053Z,0
2022-08-04T00:58:01.303Z,0
2022-08-04T00:59:03.999Z,0
2022-08-04T01:00:07.137Z,0
2022-08-04T01:01:10.027Z,0
2022-08-04T01:02:13.277Z,0
2022-08-04T01:03:16.126Z,0
2022-08-04T01:04:22.009Z,0
2022-08-04T01:05:25.786Z,0
2022-08-04T01:06:39.231Z,0
2022-08-04T01:07:41.376Z,0
2022-08-04T01:08:44.002Z,0
2022-08-04T01:09:46.367Z,0
2022-08-04T01:10:49.619Z,0
2022-08-04T01:11:57.197Z,0
2022-08-04T01:13:00.228Z,0
2022-08-04T01:14:16.578Z,0
2022-08-04T01:15:19.143Z,0
2022-08-04T01:16:21.836Z,0
2022-08-04T01:17:24.989Z,0
2022-08-04T01:18:28.141Z,0
2022-08-04T01:19:30.760Z,0
2022-08-04T01:20:33.877Z,0
2022-08-04T01:21:36.213Z,0
2022-08-04T01:22:38.816Z,0
2022-08-04T01:23:41.409Z,0
2022-08-04T01:24:44.386Z,0
2022-08-04T01:25:52.510Z,0
2022-08-04T01:27:02.907Z,0
2022-08-04T01:28:07.728Z,0
2022-08-04T01:29:12.382Z,0
2022-08-04T01:30:21.103Z,0
2022-08-04T01:31:23.725Z,0
2022-08-04T01:32:26.598Z,0
2022-08-04T01:33:28.754Z,0
2022-08-04T01:35:05.993Z,0
2022-08-04T01:36:09.216Z,0
2022-08-04T01:37:11.858Z,0
2022-08-04T01:38:18.083Z,0
2022-08-04T01:39:24.642Z,0
2022-08-04T01:40:28.349Z,0
2022-08-04T01:41:32.369Z,0
2022-08-04T01:42:36.815Z,0
2022-08-04T01:43:39.795Z,0
2022-08-04T01:44:42.447Z,0
2022-08-04T01:45:45.075Z,0
2022-08-04T01:46:47.863Z,0
2022-08-04T01:47:51.331Z,0
2022-08-04T01:48:54.258Z,0
2022-08-04T01:49:57.098Z,0
2022-08-04T01:50:59.792Z,0
2022-08-04T01:52:02.905Z,0
2022-08-04T01:53:06.311Z,0
2022-08-04T01:54:10.234Z,0
2022-08-04T01:55:13.402Z,0
2022-08-04T01:56:16.088Z,0
2022-08-04T01:57:37.219Z,0
2022-08-04T01:58:42.718Z,0
2022-08-04T01:59:48.289Z,0
2022-08-04T02:00:54.624Z,0
2022-08-04T02:02:00.369Z,0
2022-08-04T02:03:04.698Z,0
2022-08-04T02:04:19.244Z,0
2022-08-04T02:05:26.148Z,0
2022-08-04T02:07:06.589Z,0
2022-08-04T02:08:09.492Z,0
2022-08-04T02:09:11.634Z,0
2022-08-04T02:10:14.546Z,0
2022-08-04T02:11:17.688Z,0
2022-08-04T02:12:20.100Z,0
2022-08-04T02:13:22.609Z,0
2022-08-04T02:14:27.613Z,0
2022-08-04T02:15:31.564Z,0
2022-08-04T02:16:33.635Z,0
2022-08-04T02:17:36.903Z,0
2022-08-04T02:18:40.120Z,0
2022-08-04T02:19:42.687Z,0
2022-08-04T02:20:45.933Z,0
2022-08-04T02:21:47.661Z,0
2022-08-04T02:22:49.787Z,0
2022-08-04T02:23:52.415Z,0
2022-08-04T02:24:54.993Z,0
2022-08-04T02:25:58.181Z,0
2022-08-04T02:27:01.083Z,0
2022-08-04T02:28:03.967Z,0
2022-08-04T02:29:06.260Z,0
2022-08-04T02:30:10.022Z,0
2022-08-04T02:31:12.365Z,0
2022-08-04T02:32:14.705Z,0
2022-08-04T02:33:16.487Z,0
2022-08-04T02:34:19.432Z,0
2022-08-04T02:35:22.511Z,0
2022-08-04T02:36:25.414Z,0
2022-08-04T02:37:28.599Z,0
2022-08-04T02:38:31.279Z,0
2022-08-04T02:39:41.601Z,0
2022-08-04T02:40:52.256Z,0
2022-08-04T02:42:00.083Z,0
2022-08-04T02:43:02.929Z,0
2022-08-04T02:44:04.934Z,0
2022-08-04T02:45:08.115Z,0
2022-08-04T02:46:17.559Z,0
2022-08-04T02:47:21.368Z,0
2022-08-04T02:49:33.657Z,0
2022-08-04T02:50:43.535Z,0
2022-08-04T02:51:46.715Z,0
2022-08-04T02:52:49.498Z,4
2022-08-04T02:53:52.448Z,4
2022-08-04T02:54:55.289Z,0
2022-08-04T02:55:58.196Z,0
2022-08-04T02:57:00.558Z,4
2022-08-04T02:58:09.197Z,4
2022-08-04T02:59:12.393Z,4
2022-08-04T03:00:14.475Z,4
2022-08-04T03:01:17.478Z,8
2022-08-04T03:02:20.556Z,8
2022-08-04T03:03:22.899Z,8
2022-08-04T03:04:25.809Z,12
2022-08-04T03:05:28.702Z,12
2022-08-04T03:07:03.004Z,16
2022-08-04T03:08:06.696Z,16
2022-08-04T03:09:09.539Z,16
2022-08-04T03:10:12.140Z,20
2022-08-04T03:11:14.410Z,28
2022-08-04T03:12:17.591Z,32
2022-08-04T03:13:20.016Z,36
2022-08-04T03:14:23.226Z,44
2022-08-04T03:15:26.138Z,48
2022-08-04T03:16:29.991Z,56
2022-08-04T03:17:52.789Z,68
2022-08-04T03:18:56.042Z,80
2022-08-04T03:19:59.537Z,88
2022-08-04T03:21:01.880Z,100
2022-08-04T03:22:04.535Z,112
2022-08-04T03:23:13.309Z,124
2022-08-04T03:24:19.949Z,144
2022-08-04T03:25:22.713Z,156
2022-08-04T03:26:24.730Z,172
2022-08-04T03:27:28.201Z,188
2022-08-04T03:28:30.882Z,208
2022-08-04T03:29:36.962Z,228
2022-08-04T03:30:40.495Z,244
2022-08-04T03:31:42.640Z,268
2022-08-04T03:32:45.561Z,292
2022-08-04T03:33:52.596Z,312
2022-08-04T03:34:56.005Z,328
2022-08-04T03:35:59.188Z,348
2022-08-04T03:37:02.123Z,368
2022-08-04T03:38:04.543Z,388
2022-08-04T03:39:07.776Z,416
2022-08-04T03:40:10.821Z,448
2022-08-04T03:41:13.595Z,484
2022-08-04T03:42:16.244Z,516
2022-08-04T03:43:56.363Z,556
2022-08-04T03:45:02.781Z,612
2022-08-04T03:46:25.600Z,660
2022-08-04T03:47:27.833Z,696
2022-08-04T03:48:30.443Z,736
2022-08-04T03:49:33.409Z,780
2022-08-04T03:50:39.523Z,824
2022-08-04T03:51:44.220Z,868
2022-08-04T03:52:47.265Z,904
2022-08-04T03:53:50.290Z,932
2022-08-04T03:54:53.252Z,952
2022-08-04T03:55:56.165Z,976
2022-08-04T03:56:58.792Z,1000
2022-08-04T03:58:01.777Z,1032
2022-08-04T03:59:04.669Z,1064
2022-08-04T04:00:07.853Z,1104
2022-08-04T04:01:10.847Z,1148
2022-08-04T04:02:16.128Z,1188
2022-08-04T04:03:28.447Z,1224
2022-08-04T04:04:31.839Z,1264
2022-08-04T04:05:40.383Z,1304
2022-08-04T04:07:14.880Z,1360
2022-08-04T04:08:39.507Z,1408
2022-08-04T04:09:57.826Z,1456
2022-08-04T04:11:10.139Z,1512
2022-08-04T04:12:12.771Z,1552
2022-08-04T04:13:16.271Z,1604
2022-08-04T04:14:19.174Z,1656
2022-08-04T04:15:22.128Z,1696
2022-08-04T04:16:27.253Z,1740
2022-08-04T04:17:31.059Z,1800
2022-08-04T04:18:34.033Z,1864
2022-08-04T04:19:36.394Z,1920
2022-08-04T04:20:39.829Z,1984
2022-08-04T04:21:42.531Z,2048
2022-08-04T04:22:44.881Z,2104
2022-08-04T04:23:47.291Z,2176
2022-08-04T04:24:50.176Z,2284
2022-08-04T04:25:53.002Z,2368
2022-08-04T04:26:55.082Z,2436
2022-08-04T04:28:43.449Z,2500
2022-08-04T04:29:49.751Z,2612
2022-08-04T04:30:54.803Z,2700
2022-08-04T04:31:57.156Z,2808
2022-08-04T04:32:59.787Z,2928
2022-08-04T04:34:02.352Z,3016
2022-08-04T04:35:05.329Z,3076
2022-08-04T04:36:08.236Z,3148
2022-08-04T04:37:10.247Z,3228
2022-08-04T04:38:12.263Z,3288
2022-08-04T04:39:15.811Z,3368
2022-08-04T04:40:19.659Z,3464
2022-08-04T04:41:22.622Z,3532
2022-08-04T04:42:25.741Z,3584
2022-08-04T04:43:50.633Z,3636
2022-08-04T04:44:55.294Z,3676
2022-08-04T04:46:00.153Z,3696
2022-08-04T04:47:03.139Z,3708
2022-08-04T04:48:07.795Z,3712
2022-08-04T04:49:13.581Z,3708
2022-08-04T04:50:16.955Z,3688
2022-08-04T04:51:19.595Z,3660
2022-08-04T04:52:21.452Z,3604
2022-08-04T04:53:24.245Z,3564
2022-08-04T04:54:26.344Z,3512
2022-08-04T04:55:29.310Z,3476
2022-08-04T04:56:31.952Z,3476
2022-08-04T04:57:53.678Z,3512
2022-08-04T04:58:57.608Z,3556
2022-08-04T05:00:02.802Z,3620
2022-08-04T05:01:05.153Z,3688
2022-08-04T05:02:08.336Z,3708
2022-08-04T05:03:11.220Z,3804
2022-08-04T05:04:13.609Z,3884
2022-08-04T05:05:16.245Z,3892
2022-08-04T05:06:19.145Z,3856
2022-08-04T05:07:22.417Z,3820
2022-08-04T05:08:44.165Z,3816
2022-08-04T05:09:56.409Z,3832
2022-08-04T05:10:59.308Z,3924
2022-08-04T05:12:02.379Z,3988
2022-08-04T05:15:43.536Z,4128
2022-08-04T05:16:46.719Z,4148
2022-08-04T05:17:49.285Z,4176
2022-08-04T05:18:55.373Z,4216
2022-08-04T05:19:58.559Z,4260
2022-08-04T05:21:03.200Z,4316
2022-08-04T05:22:05.555Z,4368
2022-08-04T05:23:16.032Z,4420
2022-08-04T05:24:18.954Z,4468
2022-08-04T05:25:21.589Z,4504
2022-08-04T05:26:24.781Z,4560
2022-08-04T05:27:27.145Z,4612
2022-08-04T05:28:30.058Z,4660
2022-08-04T05:29:32.701Z,4740
2022-08-04T05:30:44.222Z,4844
2022-08-04T05:31:47.137Z,4932
2022-08-04T05:32:50.138Z,5024
2022-08-04T05:34:02.295Z,5104
2022-08-04T05:35:05.290Z,5184
2022-08-04T05:36:20.924Z,5248
2022-08-04T05:37:44.047Z,5352
2022-08-04T05:39:02.847Z,5412
2022-08-04T05:40:06.430Z,5436
2022-08-04T05:41:08.439Z,5456
2022-08-04T05:42:11.574Z,5476
2022-08-04T05:43:13.982Z,5496
2022-08-04T05:44:16.955Z,5508
2022-08-04T05:45:19.827Z,5524
2022-08-04T05:46:22.456Z,5556
2022-08-04T05:47:25.586Z,5592
2022-08-04T05:48:28.000Z,5636
2022-08-04T05:49:30.294Z,5680
2022-08-04T05:50:33.487Z,5728
2022-08-04T05:51:38.026Z,5760
2022-08-04T05:52:40.598Z,5784
2022-08-04T05:53:42.393Z,5808
2022-08-04T05:54:45.249Z,5828
2022-08-04T05:55:48.460Z,5836
2022-08-04T05:57:02.808Z,5788
2022-08-04T05:58:05.659Z,5724
2022-08-04T05:59:08.338Z,5708
2022-08-04T06:00:38.698Z,5740
2022-08-04T06:01:57.207Z,5836
2022-08-04T06:03:00.930Z,5904
2022-08-04T06:04:08.116Z,5944
2022-08-04T06:05:14.360Z,5956
2022-08-04T06:06:17.151Z,5964
2022-08-04T06:07:19.822Z,5976
2022-08-04T06:08:23.802Z,6016
2022-08-04T06:09:26.448Z,6060
2022-08-04T06:10:29.945Z,6092
2022-08-04T06:11:32.466Z,6132
2022-08-04T06:13:06.923Z,6136
2022-08-04T06:14:09.559Z,6320
2022-08-04T06:15:12.198Z,6380
2022-08-04T06:16:18.023Z,6448
2022-08-04T06:18:34.288Z,6560
2022-08-04T06:21:35.462Z,7128
2022-08-04T06:22:37.818Z,7268
2022-08-04T06:23:52.870Z,7360
2022-08-04T06:25:06.878Z,7412
2022-08-04T06:26:09.965Z,7408
2022-08-04T06:27:13.285Z,7408
2022-08-04T06:28:16.034Z,7392
2022-08-04T06:29:19.212Z,7376
2022-08-04T06:30:22.331Z,7316
2022-08-04T06:32:26.574Z,7176
2022-08-04T06:33:54.675Z,6968
2022-08-04T06:34:57.323Z,6996
2022-08-04T06:35:59.948Z,7148
2022-08-04T06:37:02.585Z,7328
2022-08-04T06:38:05.221Z,7404
2022-08-04T06:39:07.618Z,7348
2022-08-04T06:40:29.314Z,7224
2022-08-04T06:41:36.502Z,7108
2022-08-04T06:43:25.489Z,6896
2022-08-04T06:44:45.271Z,6860
2022-08-04T06:45:48.405Z,6828
2022-08-04T06:46:51.417Z,6772
2022-08-04T06:47:54.045Z,6744
2022-08-04T06:48:56.342Z,6868
2022-08-04T06:51:23.983Z,6956
2022-08-04T06:52:52.142Z,7088
2022-08-04T06:53:55.327Z,7136
2022-08-04T06:54:58.514Z,7168
2022-08-04T06:56:01.706Z,7204
2022-08-04T06:57:05.455Z,7248
2022-08-04T06:58:08.445Z,7300
2022-08-04T06:59:12.096Z,7380
2022-08-04T07:00:14.715Z,7488
2022-08-04T07:01:17.960Z,7620
2022-08-04T07:02:21.022Z,7740
2022-08-04T07:03:23.869Z,7844
2022-08-04T07:04:26.462Z,7936
2022-08-04T07:05:29.524Z,8092
2022-08-04T07:06:32.112Z,8252
2022-08-04T07:07:37.003Z,8428
2022-08-04T07:09:01.106Z,8780
2022-08-04T07:10:04.009Z,9068
2022-08-04T07:11:06.707Z,9376
2022-08-04T07:12:09.275Z,9776
2022-08-04T07:13:12.244Z,10128
2022-08-04T07:14:14.061Z,10452
2022-08-04T07:15:16.688Z,10844
2022-08-04T07:16:19.034Z,11336
2022-08-04T07:17:34.706Z,11772
2022-08-04T07:18:37.919Z,12148
2022-08-04T07:19:40.743Z,13164
2022-08-04T07:20:43.393Z,13940
2022-08-04T07:22:16.103Z,13984
2022-08-04T07:23:28.039Z,13668
2022-08-04T07:24:30.613Z,13244
2022-08-04T07:25:42.774Z,12672
2022-08-04T07:27:15.582Z,11308
2022-08-04T07:28:18.013Z,10612
2022-08-04T07:29:20.871Z,9616
2022-08-04T07:30:24.942Z,8912
2022-08-04T07:31:33.972Z,8928
2022-08-04T07:32:39.000Z,9296
2022-08-04T07:33:41.863Z,9428
2022-08-04T07:34:49.651Z,9708
2022-08-04T07:36:06.256Z,10316
2022-08-04T07:37:17.002Z,11012
2022-08-04T07:38:21.597Z,11236
2022-08-04T07:39:33.387Z,11408
2022-08-04T07:40:52.189Z,11364
2022-08-04T07:41:55.734Z,11284
2022-08-04T07:42:58.625Z,11416
2022-08-04T07:44:01.274Z,11752
2022-08-04T07:45:03.567Z,12108
2022-08-04T07:46:12.475Z,12496
2022-08-04T07:47:15.963Z,12864
2022-08-04T07:48:25.944Z,13336
2022-08-04T07:49:54.287Z,13468
2022-08-04T07:51:00.039Z,13424
2022-08-04T07:52:02.609Z,13200
2022-08-04T07:53:23.263Z,12996
2022-08-04T07:54:58.294Z,12400
2022-08-04T07:56:01.289Z,12264
2022-08-04T07:57:04.488Z,12280
2022-08-04T07:58:07.048Z,12156
2022-08-04T07:59:09.696Z,12092
2022-08-04T08:00:12.273Z,11984
2022-08-04T08:01:15.187Z,11904
2022-08-04T08:02:18.122Z,11788
2022-08-04T08:03:21.768Z,11660
2022-08-04T08:04:24.928Z,11400
2022-08-04T08:05:27.839Z,11252
2022-08-04T08:06:31.791Z,11132
2022-08-04T08:07:49.988Z,11540
2022-08-04T08:08:57.135Z,11692
2022-08-04T08:09:59.756Z,11904
2022-08-04T08:11:02.390Z,12124
2022-08-04T08:12:34.660Z,12308
2022-08-04T08:13:54.770Z,12564
2022-08-04T08:15:01.210Z,12804
2022-08-04T08:16:04.671Z,13080
2022-08-04T08:17:07.882Z,13152
2022-08-04T08:18:11.093Z,13060
2022-08-04T08:19:14.384Z,12732
2022-08-04T08:20:29.273Z,12368
2022-08-04T08:21:33.678Z,12348
2022-08-04T08:23:04.189Z,12564
2022-08-04T08:24:09.758Z,12712
2022-08-04T08:25:15.768Z,12844
2022-08-04T08:26:18.404Z,12892
2022-08-04T08:27:21.991Z,13012
2022-08-04T08:28:25.836Z,20832
2022-08-04T08:29:28.533Z,27296
2022-08-04T08:30:32.790Z,27424
2022-08-04T08:31:55.754Z,28512
2022-08-04T08:33:11.804Z,14148
2022-08-04T08:34:14.716Z,14284
2022-08-04T08:35:31.569Z,14256
2022-08-04T08:36:56.066Z,13936
2022-08-04T08:37:58.493Z,13212
2022-08-04T08:39:02.980Z,12376
2022-08-04T08:40:06.900Z,13384
2022-08-04T08:41:09.020Z,13472
2022-08-04T08:42:11.633Z,13380
2022-08-04T08:44:00.740Z,13448
2022-08-04T08:45:39.441Z,13848
2022-08-04T08:46:49.237Z,14076
2022-08-04T08:48:05.671Z,14376
2022-08-04T08:49:09.858Z,16984
2022-08-04T08:51:06.544Z,16464
2022-08-04T08:52:09.936Z,31712
2022-08-04T08:53:13.963Z,83168
2022-08-04T08:54:17.161Z,120096
2022-08-04T08:55:20.328Z,109728
2022-08-04T08:56:30.887Z,100640
2022-08-04T08:57:34.807Z,102272
2022-08-04T08:59:01.861Z,107424
2022-08-04T09:00:05.326Z,111072
2022-08-04T09:01:08.083Z,114432
2022-08-04T09:02:11.681Z,119904
2022-08-04T09:03:14.583Z,118336
2022-08-04T09:04:22.925Z,97952
2022-08-04T09:05:34.621Z,105408
2022-08-04T09:06:37.258Z,61888
2022-08-04T09:07:44.092Z,103968
2022-08-04T09:08:47.031Z,124736
2022-08-04T09:09:49.320Z,129568
2022-08-04T09:10:52.229Z,127584
2022-08-04T09:11:55.211Z,135360
2022-08-04T09:12:57.854Z,135840
2022-08-04T09:14:00.216Z,133696
2022-08-04T09:15:03.187Z,132992
2022-08-04T09:16:05.978Z,131424
2022-08-04T09:17:07.989Z,131008
2022-08-04T09:18:10.464Z,131008
2022-08-04T09:19:17.636Z,132224
2022-08-04T09:20:42.213Z,126016
2022-08-04T09:21:45.861Z,62912
2022-08-04T09:22:48.973Z,111104
2022-08-04T09:23:52.447Z,104992
2022-08-04T09:24:54.743Z,118880
2022-08-04T09:25:57.378Z,130848
2022-08-04T09:27:00.669Z,130688
2022-08-04T09:28:06.107Z,130144
2022-08-04T09:29:12.838Z,130528
2022-08-04T09:30:15.639Z,131968
2022-08-04T09:31:18.316Z,133088
2022-08-04T09:32:21.472Z,132864
2022-08-04T09:33:44.357Z,132768
2022-08-04T09:35:01.375Z,133792
2022-08-04T09:36:25.661Z,119808
2022-08-04T09:37:29.049Z,120512
2022-08-04T09:38:31.944Z,112800
2022-08-04T09:39:34.016Z,119392
2022-08-04T09:40:55.520Z,120864
2022-08-04T09:42:49.853Z,115616
2022-08-04T09:43:57.399Z,118624
2022-08-04T09:46:44.734Z,122496
2022-08-04T09:47:47.150Z,118976
2022-08-04T09:48:50.060Z,113952
2022-08-04T09:49:53.181Z,114304
2022-08-04T09:50:56.163Z,123072
2022-08-04T09:51:59.685Z,57888
2022-08-04T09:53:02.999Z,76288
2022-08-04T09:54:05.909Z,94976
2022-08-04T09:55:08.273Z,114816
2022-08-04T09:56:10.654Z,126240
2022-08-04T09:57:13.567Z,125536
2022-08-04T09:58:16.219Z,128992
2022-08-04T09:59:18.621Z,129056
2022-08-04T10:00:36.346Z,128224
2022-08-04T10:01:46.100Z,125696
2022-08-04T10:03:01.971Z,127712
2022-08-04T10:04:04.856Z,129504
2022-08-04T10:05:07.472Z,125472
2022-08-04T10:06:10.399Z,97024
2022-08-04T10:07:12.515Z,38112
2022-08-04T10:08:16.983Z,52384
2022-08-04T10:09:19.682Z,45184
2022-08-04T10:10:23.410Z,77504
2022-08-04T10:11:26.454Z,39136
2022-08-04T10:12:29.608Z,66368
2022-08-04T10:13:32.213Z,112096
2022-08-04T10:14:34.517Z,131616
2022-08-04T10:15:37.373Z,130016
2022-08-04T10:16:39.452Z,126752
2022-08-04T10:17:49.130Z,126016
2022-08-04T10:18:55.543Z,125280
2022-08-04T10:19:57.878Z,126880
2022-08-04T10:21:06.947Z,126976
2022-08-04T10:22:27.511Z,127520
2022-08-04T10:24:14.688Z,128832
2022-08-04T10:25:37.753Z,122560
2022-08-04T10:27:11.282Z,121600
2022-08-04T10:28:16.617Z,129984
2022-08-04T10:29:19.044Z,128352
2022-08-04T10:30:22.165Z,129248
2022-08-04T10:31:24.796Z,130208
2022-08-04T10:32:27.157Z,129888
2022-08-04T10:33:30.008Z,127872
2022-08-04T10:34:33.702Z,107584
2022-08-04T10:35:36.558Z,52416
2022-08-04T10:36:38.910Z,44768
2022-08-04T10:37:55.312Z,37248
2022-08-04T10:39:05.662Z,60928
2022-08-04T10:40:45.880Z,118304
2022-08-04T10:41:49.362Z,111232
2022-08-04T10:42:52.326Z,125536
2022-08-04T10:43:55.793Z,129344
2022-08-04T10:44:58.200Z,126688
2022-08-04T10:46:00.960Z,125728
2022-08-04T10:47:04.161Z,123488
2022-08-04T10:48:07.156Z,120896
2022-08-04T10:49:14.109Z,121088
2022-08-04T10:50:17.281Z,119968
2022-08-04T10:51:19.367Z,120832
2022-08-04T10:52:21.729Z,120736
2022-08-04T10:53:24.921Z,115840
2022-08-04T10:54:27.910Z,115488
2022-08-04T10:56:06.096Z,114080
2022-08-04T10:57:11.871Z,112768
2022-08-04T10:58:21.711Z,114016
2022-08-04T10:59:51.322Z,114112
2022-08-04T11:01:05.858Z,111520
2022-08-04T11:02:08.716Z,109312
2022-08-04T11:03:18.032Z,114272
2022-08-04T11:04:26.597Z,112704
2022-08-04T11:05:30.327Z,19164
2022-08-04T11:06:33.244Z,112096
2022-08-04T11:07:36.634Z,118656
2022-08-04T11:08:39.534Z,120576
2022-08-04T11:09:42.425Z,117920
2022-08-04T11:10:45.048Z,121376
2022-08-04T11:11:56.836Z,121664
2022-08-04T11:13:04.231Z,109664
2022-08-04T11:14:06.872Z,113728
2022-08-04T11:15:09.590Z,114368
2022-08-04T11:16:12.165Z,117120
2022-08-04T11:17:15.173Z,115744
2022-08-04T11:18:17.758Z,115488
2022-08-04T11:19:20.936Z,117056
2022-08-04T11:21:36.947Z,116928
2022-08-04T11:22:39.914Z,118048
2022-08-04T11:23:42.210Z,120192
2022-08-04T11:24:45.062Z,119168
2022-08-04T11:25:51.485Z,120896
2022-08-04T11:26:55.226Z,119904
2022-08-04T11:27:58.698Z,120352
2022-08-04T11:29:03.536Z,121440
2022-08-04T11:30:06.880Z,121504
2022-08-04T11:31:09.279Z,120608
2022-08-04T11:32:11.347Z,121856
2022-08-04T11:33:14.664Z,120704
2022-08-04T11:34:17.798Z,119776
2022-08-04T11:35:21.007Z,120896
2022-08-04T11:36:23.995Z,115328
2022-08-04T11:37:27.397Z,71840
2022-08-04T11:38:32.353Z,70528
2022-08-04T11:39:35.274Z,123456
2022-08-04T11:40:39.075Z,123264
2022-08-04T11:41:41.369Z,57056
2022-08-04T11:42:43.475Z,121088
2022-08-04T11:43:56.177Z,116416
2022-08-04T11:45:15.395Z,20072
2022-08-04T11:46:18.631Z,17192
2022-08-04T11:47:21.424Z,22080
2022-08-04T11:48:25.786Z,116608
2022-08-04T11:49:29.199Z,118624
2022-08-04T11:50:32.107Z,118880
2022-08-04T11:51:35.030Z,111744
2022-08-04T11:52:38.000Z,121440
2022-08-04T11:53:40.915Z,117472
2022-08-04T11:54:43.595Z,124704
2022-08-04T11:56:07.250Z,128224
2022-08-04T11:57:40.189Z,122496
2022-08-04T11:58:43.693Z,116992
2022-08-04T11:59:53.441Z,117632
2022-08-04T12:00:56.068Z,89760
2022-08-04T12:01:58.744Z,116864
2022-08-04T12:03:01.910Z,121152
2022-08-04T12:04:05.990Z,122784
2022-08-04T12:05:08.674Z,126240
2022-08-04T12:06:40.248Z,131200
2022-08-04T12:08:38.088Z,139968
2022-08-04T12:09:40.427Z,137920
2022-08-04T12:10:43.385Z,132704
2022-08-04T12:11:45.806Z,134944
2022-08-04T12:12:52.315Z,103712
2022-08-04T12:13:58.794Z,104928
2022-08-04T12:15:04.635Z,21568
2022-08-04T12:16:07.271Z,20352
2022-08-04T12:17:10.444Z,20192
2022-08-04T12:18:13.066Z,19648
2022-08-04T12:19:21.060Z,20864
2022-08-04T12:21:43.537Z,98464
2022-08-04T12:22:58.505Z,129152
2022-08-04T12:24:11.769Z,115040
2022-08-04T12:25:14.411Z,131520
2022-08-04T12:26:17.083Z,128384
2022-08-04T12:27:19.830Z,127104
2022-08-04T12:28:46.680Z,128672
2022-08-04T12:30:57.601Z,127104
2022-08-04T12:32:14.060Z,75616
2022-08-04T12:33:17.754Z,33120
2022-08-04T12:34:21.189Z,46336
2022-08-04T12:35:30.849Z,124864
2022-08-04T12:36:33.714Z,119072
2022-08-04T12:37:36.630Z,108032
2022-08-04T12:38:39.815Z,109152
2022-08-04T12:40:17.053Z,114208
2022-08-04T12:41:35.601Z,121536
2022-08-04T12:42:38.880Z,98272
2022-08-04T12:44:02.111Z,78080
2022-08-04T12:45:04.809Z,109952
2022-08-04T12:46:07.989Z,112864
2022-08-04T12:47:26.047Z,119936
2022-08-04T12:48:41.496Z,123424
2022-08-04T12:49:43.798Z,121120
2022-08-04T12:51:05.556Z,119136
2022-08-04T12:53:11.147Z,114560
2022-08-04T12:54:52.468Z,65184
2022-08-04T12:56:01.329Z,63776
2022-08-04T12:57:04.560Z,114944
2022-08-04T12:58:07.471Z,96416
2022-08-04T12:59:12.648Z,17888
2022-08-04T13:00:15.566Z,16544
2022-08-04T13:02:06.029Z,41504
2022-08-04T13:03:14.536Z,80768
2022-08-04T13:04:18.743Z,21440
2022-08-04T13:05:31.687Z,108128
2022-08-04T13:06:34.667Z,107648
2022-08-04T13:07:37.292Z,106368
2022-08-04T13:08:49.022Z,104576
2022-08-04T13:09:51.649Z,103360
2022-08-04T13:10:53.809Z,26112
2022-08-04T13:11:56.096Z,19168
2022-08-04T13:12:58.886Z,19284
2022-08-04T13:14:24.686Z,17948
2022-08-04T13:15:30.601Z,15592
2022-08-04T13:16:33.451Z,14464
2022-08-04T13:17:36.092Z,13668
2022-08-04T13:18:43.899Z,13884
2022-08-04T13:19:50.268Z,15540
2022-08-04T13:20:58.482Z,24128
2022-08-04T13:23:06.896Z,94592
2022-08-04T13:24:20.363Z,83392
2022-08-04T13:27:57.763Z,71680
2022-08-04T13:31:35.558Z,34336
2022-08-04T13:32:38.208Z,24832
2022-08-04T13:33:42.192Z,43488
2022-08-04T13:34:48.804Z,16572
2022-08-04T13:35:56.613Z,15196
2022-08-04T13:36:58.703Z,17076
2022-08-04T13:38:02.813Z,16108
2022-08-04T13:39:05.767Z,29088
2022-08-04T13:40:09.596Z,28928
2022-08-04T13:41:11.960Z,46912
2022-08-04T13:42:15.370Z,61792
2022-08-04T13:43:48.348Z,45600
2022-08-04T13:45:23.522Z,56224
2022-08-04T13:46:37.481Z,28160
2022-08-04T13:47:40.675Z,30368
2022-08-04T13:48:43.618Z,38528
2022-08-04T13:50:01.051Z,72448
2022-08-04T13:51:15.104Z,53248
2022-08-04T13:52:17.684Z,44064
2022-08-04T13:53:21.881Z,17624
2022-08-04T13:54:33.076Z,17224
2022-08-04T13:55:43.068Z,17456
2022-08-04T13:56:45.977Z,16620
2022-08-04T13:57:53.155Z,15888
2022-08-04T13:58:56.344Z,16708
2022-08-04T14:00:04.466Z,18432
2022-08-04T14:01:07.456Z,17960
2022-08-04T14:02:10.976Z,47360
2022-08-04T14:03:18.915Z,37088
2022-08-04T14:04:26.948Z,53472
2022-08-04T14:05:36.835Z,59488
2022-08-04T14:07:02.738Z,20800
2022-08-04T14:08:06.917Z,60352
2022-08-04T14:09:09.422Z,61120
2022-08-04T14:10:12.112Z,61312
2022-08-04T14:12:07.248Z,15796
2022-08-04T14:13:50.113Z,63808
2022-08-04T14:14:53.309Z,64960
2022-08-04T14:16:03.220Z,64640
2022-08-04T14:17:07.032Z,19776
2022-08-04T14:18:22.869Z,57824
2022-08-04T14:19:30.705Z,58240
2022-08-04T14:20:39.308Z,57024
2022-08-04T14:21:43.287Z,55072
2022-08-04T14:22:46.356Z,54080
2022-08-04T14:23:49.330Z,55008
2022-08-04T14:24:51.706Z,54528
2022-08-04T14:25:54.679Z,51200
2022-08-04T14:26:57.585Z,50016
2022-08-04T14:28:00.704Z,50464
2022-08-04T14:29:26.122Z,50560
2022-08-04T14:30:31.663Z,52832
2022-08-04T14:31:36.997Z,48256
2022-08-04T14:33:56.427Z,48608
2022-08-04T14:35:45.554Z,36832
2022-08-04T14:37:13.558Z,46752
2022-08-04T14:38:23.054Z,48256
2022-08-04T14:39:26.280Z,40992
2022-08-04T14:40:30.449Z,37440
2022-08-04T14:41:35.239Z,35456
2022-08-04T14:42:40.550Z,30848
2022-08-04T14:43:44.001Z,34272
2022-08-04T14:44:46.896Z,36032
2022-08-04T14:45:53.921Z,29952
2022-08-04T14:46:57.793Z,38496
2022-08-04T14:48:00.099Z,11408
2022-08-04T14:49:03.045Z,9828
2022-08-04T14:50:12.143Z,9184
2022-08-04T14:51:15.335Z,8756
2022-08-04T14:52:37.706Z,8180
2022-08-04T14:53:40.881Z,8048
2022-08-04T14:54:43.616Z,8104
2022-08-04T14:55:45.679Z,8412
2022-08-04T14:56:48.615Z,8580
2022-08-04T14:58:33.235Z,8944
2022-08-04T14:59:44.125Z,9424
2022-08-04T15:01:20.501Z,10064
2022-08-04T15:02:24.107Z,11292
2022-08-04T15:03:33.424Z,18976
2022-08-04T15:04:35.790Z,14160
2022-08-04T15:05:54.773Z,13064
2022-08-04T15:07:25.543Z,11928
2022-08-04T15:08:29.159Z,11160
2022-08-04T15:09:34.298Z,11112
2022-08-04T15:10:37.560Z,11388
2022-08-04T15:11:43.227Z,14192
2022-08-04T15:12:46.687Z,15356
2022-08-04T15:13:49.246Z,12668
2022-08-04T15:14:52.158Z,12364
2022-08-04T15:16:01.036Z,12968